sensor_id;sensor_type;location;lat;lon;timestamp;pressure;altitude;pressure_sealevel;temperature;humidity
13581;BME280;6861;46.170;7.222;2023-05-23T00:01:06;95831.53;;;21.01;45.41
13581;BME280;6861;46.170;7.222;2023-05-23T00:03:34;95830.31;;;20.99;45.66
13581;BME280;6861;46.170;7.222;2023-05-23T00:06:05;95836.75;;;20.98;46.11
13581;BME280;6861;46.170;7.222;2023-05-23T00:08:33;95845.72;;;20.93;46.34
13581;BME280;6861;46.170;7.222;2023-05-23T00:11:03;95840.63;;;20.88;46.31
13581;BME280;6861;46.170;7.222;2023-05-23T00:13:31;95843.19;;;20.84;46.22
13581;BME280;6861;46.170;7.222;2023-05-23T00:16:00;95834.00;;;20.82;46.48
13581;BME280;6861;46.170;7.222;2023-05-23T00:18:28;95837.44;;;20.82;46.56
13581;BME280;6861;46.170;7.222;2023-05-23T00:20:57;95847.22;;;20.78;46.46
13581;BME280;6861;46.170;7.222;2023-05-23T00:23:25;95845.09;;;20.72;46.32
13581;BME280;6861;46.170;7.222;2023-05-23T00:25:55;95838.13;;;20.67;46.43
13581;BME280;6861;46.170;7.222;2023-05-23T00:28:25;95843.44;;;20.67;46.09
13581;BME280;6861;46.170;7.222;2023-05-23T00:30:53;95840.78;;;20.67;46.05
13581;BME280;6861;46.170;7.222;2023-05-23T00:33:22;95847.19;;;20.66;46.22
13581;BME280;6861;46.170;7.222;2023-05-23T00:35:50;95844.44;;;20.63;46.37
13581;BME280;6861;46.170;7.222;2023-05-23T00:38:18;95843.88;;;20.57;45.86
13581;BME280;6861;46.170;7.222;2023-05-23T00:40:46;95836.00;;;20.48;45.81
13581;BME280;6861;46.170;7.222;2023-05-23T00:43:14;95834.97;;;20.41;45.52
13581;BME280;6861;46.170;7.222;2023-05-23T00:45:44;95845.81;;;20.36;45.77
13581;BME280;6861;46.170;7.222;2023-05-23T00:48:13;95850.66;;;20.34;45.32
13581;BME280;6861;46.170;7.222;2023-05-23T00:50:41;95856.75;;;20.34;45.64
13581;BME280;6861;46.170;7.222;2023-05-23T00:53:09;95853.78;;;20.36;46.23
13581;BME280;6861;46.170;7.222;2023-05-23T00:55:38;95858.31;;;20.35;46.94
13581;BME280;6861;46.170;7.222;2023-05-23T00:58:06;95849.91;;;20.33;47.28
13581;BME280;6861;46.170;7.222;2023-05-23T01:00:35;95853.53;;;20.28;47.41
13581;BME280;6861;46.170;7.222;2023-05-23T01:03:05;95849.84;;;20.21;48.12
13581;BME280;6861;46.170;7.222;2023-05-23T01:05:34;95851.50;;;20.13;48.28
13581;BME280;6861;46.170;7.222;2023-05-23T01:08:02;95864.88;;;20.05;48.74
13581;BME280;6861;46.170;7.222;2023-05-23T01:10:30;95857.75;;;19.96;48.68
13581;BME280;6861;46.170;7.222;2023-05-23T01:13:09;95856.75;;;19.89;49.21
13581;BME280;6861;46.170;7.222;2023-05-23T01:15:44;95858.84;;;19.83;49.19
13581;BME280;6861;46.170;7.222;2023-05-23T01:18:19;95853.41;;;19.80;49.14
13581;BME280;6861;46.170;7.222;2023-05-23T01:20:52;95855.94;;;19.76;49.16
13581;BME280;6861;46.170;7.222;2023-05-23T01:23:54;95847.84;;;19.73;49.06
13581;BME280;6861;46.170;7.222;2023-05-23T01:26:35;95865.06;;;19.67;49.23
13581;BME280;6861;46.170;7.222;2023-05-23T01:29:12;95863.91;;;19.55;48.92
13581;BME280;6861;46.170;7.222;2023-05-23T01:31:42;95864.38;;;19.49;48.89
13581;BME280;6861;46.170;7.222;2023-05-23T01:34:13;95875.31;;;19.47;49.31
13581;BME280;6861;46.170;7.222;2023-05-23T01:36:43;95874.56;;;19.47;49.14
13581;BME280;6861;46.170;7.222;2023-05-23T01:39:11;95880.19;;;19.45;49.23
13581;BME280;6861;46.170;7.222;2023-05-23T01:41:40;95883.28;;;19.47;48.95
13581;BME280;6861;46.170;7.222;2023-05-23T01:44:09;95871.13;;;19.46;48.88
13581;BME280;6861;46.170;7.222;2023-05-23T01:46:38;95877.22;;;19.47;48.71
13581;BME280;6861;46.170;7.222;2023-05-23T01:49:08;95873.78;;;19.46;48.88
13581;BME280;6861;46.170;7.222;2023-05-23T01:51:38;95869.13;;;19.43;48.99
13581;BME280;6861;46.170;7.222;2023-05-23T01:54:07;95864.78;;;19.39;49.25
13581;BME280;6861;46.170;7.222;2023-05-23T01:56:35;95869.50;;;19.33;49.30
13581;BME280;6861;46.170;7.222;2023-05-23T01:59:04;95865.03;;;19.25;48.94
13581;BME280;6861;46.170;7.222;2023-05-23T02:01:33;95869.41;;;19.21;49.31
13581;BME280;6861;46.170;7.222;2023-05-23T02:04:03;95868.50;;;19.17;49.04
13581;BME280;6861;46.170;7.222;2023-05-23T02:06:31;95873.53;;;19.10;49.66
13581;BME280;6861;46.170;7.222;2023-05-23T02:09:00;95877.28;;;19.09;49.44
13581;BME280;6861;46.170;7.222;2023-05-23T02:11:28;95873.06;;;19.08;49.68
13581;BME280;6861;46.170;7.222;2023-05-23T02:13:56;95870.31;;;19.04;49.93
13581;BME280;6861;46.170;7.222;2023-05-23T02:16:24;95878.63;;;18.94;50.26
13581;BME280;6861;46.170;7.222;2023-05-23T02:18:54;95868.72;;;18.82;51.28
13581;BME280;6861;46.170;7.222;2023-05-23T02:21:23;95870.44;;;18.78;51.17
13581;BME280;6861;46.170;7.222;2023-05-23T02:23:51;95875.75;;;18.78;50.70
13581;BME280;6861;46.170;7.222;2023-05-23T02:26:19;95876.06;;;18.77;50.82
13581;BME280;6861;46.170;7.222;2023-05-23T02:28:47;95873.72;;;18.75;51.14
13581;BME280;6861;46.170;7.222;2023-05-23T02:31:15;95882.13;;;18.77;51.07
13581;BME280;6861;46.170;7.222;2023-05-23T02:33:43;95885.25;;;18.79;50.84
13581;BME280;6861;46.170;7.222;2023-05-23T02:36:13;95885.25;;;18.79;51.34
13581;BME280;6861;46.170;7.222;2023-05-23T02:38:41;95879.03;;;18.75;50.95
13581;BME280;6861;46.170;7.222;2023-05-23T02:41:09;95878.44;;;18.70;51.11
13581;BME280;6861;46.170;7.222;2023-05-23T02:43:37;95889.34;;;18.68;51.17
13581;BME280;6861;46.170;7.222;2023-05-23T02:46:06;95887.16;;;18.70;50.76
13581;BME280;6861;46.170;7.222;2023-05-23T02:48:34;95888.72;;;18.71;50.42
13581;BME280;6861;46.170;7.222;2023-05-23T02:51:03;95896.97;;;18.70;50.68
13581;BME280;6861;46.170;7.222;2023-05-23T02:53:32;95886.09;;;18.62;51.03
13581;BME280;6861;46.170;7.222;2023-05-23T02:56:00;95890.94;;;18.60;50.59
13581;BME280;6861;46.170;7.222;2023-05-23T02:58:28;95892.63;;;18.56;50.75
13581;BME280;6861;46.170;7.222;2023-05-23T03:00:57;95899.34;;;18.54;50.34
13581;BME280;6861;46.170;7.222;2023-05-23T03:03:25;95896.69;;;18.54;50.61
13581;BME280;6861;46.170;7.222;2023-05-23T03:05:54;95893.88;;;18.59;50.44
13581;BME280;6861;46.170;7.222;2023-05-23T03:08:23;95896.06;;;18.57;50.55
13581;BME280;6861;46.170;7.222;2023-05-23T03:10:52;95896.22;;;18.52;51.37
13581;BME280;6861;46.170;7.222;2023-05-23T03:13:21;95899.50;;;18.49;51.21
13581;BME280;6861;46.170;7.222;2023-05-23T03:15:49;95893.75;;;18.47;51.69
13581;BME280;6861;46.170;7.222;2023-05-23T03:18:17;95892.81;;;18.43;51.39
13581;BME280;6861;46.170;7.222;2023-05-23T03:20:45;95895.66;;;18.38;51.87
13581;BME280;6861;46.170;7.222;2023-05-23T03:23:13;95893.16;;;18.32;52.18
13581;BME280;6861;46.170;7.222;2023-05-23T03:25:42;95890.03;;;18.30;52.17
13581;BME280;6861;46.170;7.222;2023-05-23T03:28:11;95893.94;;;18.24;52.28
13581;BME280;6861;46.170;7.222;2023-05-23T03:30:39;95897.44;;;18.16;53.19
13581;BME280;6861;46.170;7.222;2023-05-23T03:33:08;95903.34;;;18.05;52.83
13581;BME280;6861;46.170;7.222;2023-05-23T03:35:36;95904.59;;;17.98;53.01
13581;BME280;6861;46.170;7.222;2023-05-23T03:38:05;95903.84;;;17.98;53.06
13581;BME280;6861;46.170;7.222;2023-05-23T03:40:33;95900.72;;;17.96;53.68
13581;BME280;6861;46.170;7.222;2023-05-23T03:43:01;95897.59;;;17.94;53.64
13581;BME280;6861;46.170;7.222;2023-05-23T03:45:32;95899.78;;;17.92;53.46
13581;BME280;6861;46.170;7.222;2023-05-23T03:48:00;95900.56;;;17.92;53.36
13581;BME280;6861;46.170;7.222;2023-05-23T03:50:28;95910.84;;;17.94;53.27
13581;BME280;6861;46.170;7.222;2023-05-23T03:52:56;95906.78;;;17.96;53.29
13581;BME280;6861;46.170;7.222;2023-05-23T03:55:24;95912.25;;;18.00;53.42
13581;BME280;6861;46.170;7.222;2023-05-23T03:57:53;95905.38;;;17.99;53.46
13581;BME280;6861;46.170;7.222;2023-05-23T04:00:21;95903.84;;;17.98;52.98
13581;BME280;6861;46.170;7.222;2023-05-23T04:02:50;95909.13;;;17.98;52.87
13581;BME280;6861;46.170;7.222;2023-05-23T04:05:19;95908.50;;;18.01;53.04
13581;BME280;6861;46.170;7.222;2023-05-23T04:07:47;95906.63;;;18.01;52.83
13581;BME280;6861;46.170;7.222;2023-05-23T04:10:16;95918.31;;;18.00;53.49
13581;BME280;6861;46.170;7.222;2023-05-23T04:12:44;95920.19;;;18.00;53.20
13581;BME280;6861;46.170;7.222;2023-05-23T04:15:13;95919.09;;;18.01;52.86
13581;BME280;6861;46.170;7.222;2023-05-23T04:17:41;95912.25;;;18.00;53.08
13581;BME280;6861;46.170;7.222;2023-05-23T04:20:11;95908.50;;;18.01;53.39
13581;BME280;6861;46.170;7.222;2023-05-23T04:22:39;95916.59;;;17.96;52.83
13581;BME280;6861;46.170;7.222;2023-05-23T04:25:08;95912.88;;;17.97;52.84
13581;BME280;6861;46.170;7.222;2023-05-23T04:27:36;95912.41;;;17.95;53.67
13581;BME280;6861;46.170;7.222;2023-05-23T04:30:07;95924.06;;;17.94;53.16
13581;BME280;6861;46.170;7.222;2023-05-23T04:32:36;95926.25;;;17.92;52.91
13581;BME280;6861;46.170;7.222;2023-05-23T04:35:05;95925.47;;;17.91;53.20
13581;BME280;6861;46.170;7.222;2023-05-23T04:37:35;95931.56;;;17.92;54.01
13581;BME280;6861;46.170;7.222;2023-05-23T04:40:04;95935.91;;;17.88;53.54
13581;BME280;6861;46.170;7.222;2023-05-23T04:42:32;95937.31;;;17.85;54.12
13581;BME280;6861;46.170;7.222;2023-05-23T04:45:01;95941.03;;;17.84;53.87
13581;BME280;6861;46.170;7.222;2023-05-23T04:47:29;95949.75;;;17.76;54.73
13581;BME280;6861;46.170;7.222;2023-05-23T04:50:03;95944.16;;;17.69;54.21
13581;BME280;6861;46.170;7.222;2023-05-23T04:52:31;95943.19;;;17.65;54.63
13581;BME280;6861;46.170;7.222;2023-05-23T04:55:01;95937.59;;;17.66;54.85
13581;BME280;6861;46.170;7.222;2023-05-23T04:57:29;95937.47;;;17.72;54.69
13581;BME280;6861;46.170;7.222;2023-05-23T04:59:58;95941.66;;;17.81;54.02
13581;BME280;6861;46.170;7.222;2023-05-23T05:02:26;95947.13;;;17.85;54.13
13581;BME280;6861;46.170;7.222;2023-05-23T05:04:59;95938.25;;;17.98;53.75
13581;BME280;6861;46.170;7.222;2023-05-23T05:07:27;95932.94;;;18.07;53.77
13581;BME280;6861;46.170;7.222;2023-05-23T05:09:56;95942.91;;;18.10;53.82
13581;BME280;6861;46.170;7.222;2023-05-23T05:12:28;95937.31;;;18.20;53.46
13581;BME280;6861;46.170;7.222;2023-05-23T05:14:56;95939.91;;;18.28;53.68
13581;BME280;6861;46.170;7.222;2023-05-23T05:17:24;95943.31;;;18.38;53.65
13581;BME280;6861;46.170;7.222;2023-05-23T05:19:52;95945.19;;;18.46;53.40
13581;BME280;6861;46.170;7.222;2023-05-23T05:22:20;95948.31;;;18.48;53.54
13581;BME280;6861;46.170;7.222;2023-05-23T05:24:48;95942.66;;;18.58;53.38
13581;BME280;6861;46.170;7.222;2023-05-23T05:27:17;95948.56;;;18.81;52.92
13581;BME280;6861;46.170;7.222;2023-05-23T05:29:48;95953.84;;;19.19;52.14
13581;BME280;6861;46.170;7.222;2023-05-23T05:32:16;95947.81;;;19.69;51.07
13581;BME280;6861;46.170;7.222;2023-05-23T05:34:45;95948.75;;;20.26;50.27
13581;BME280;6861;46.170;7.222;2023-05-23T05:37:15;95939.38;;;20.86;49.39
13581;BME280;6861;46.170;7.222;2023-05-23T05:39:43;95934.78;;;21.44;48.13
13581;BME280;6861;46.170;7.222;2023-05-23T05:42:11;95943.19;;;21.99;47.58
13581;BME280;6861;46.170;7.222;2023-05-23T05:44:39;95944.81;;;22.43;46.54
13581;BME280;6861;46.170;7.222;2023-05-23T05:47:09;95939.84;;;22.73;45.93
13581;BME280;6861;46.170;7.222;2023-05-23T05:49:37;95932.25;;;23.03;45.27
13581;BME280;6861;46.170;7.222;2023-05-23T05:52:06;95933.13;;;23.42;44.54
13581;BME280;6861;46.170;7.222;2023-05-23T05:54:34;95931.91;;;23.91;43.59
13581;BME280;6861;46.170;7.222;2023-05-23T05:57:03;95931.88;;;24.26;42.73
13581;BME280;6861;46.170;7.222;2023-05-23T05:59:31;95939.72;;;24.38;42.42
13581;BME280;6861;46.170;7.222;2023-05-23T06:01:59;95940.94;;;24.63;41.89
13581;BME280;6861;46.170;7.222;2023-05-23T06:04:29;95939.13;;;24.90;41.22
13581;BME280;6861;46.170;7.222;2023-05-23T06:06:58;95930.78;;;25.18;40.57
13581;BME280;6861;46.170;7.222;2023-05-23T06:09:26;95925.44;;;25.44;39.86
13581;BME280;6861;46.170;7.222;2023-05-23T06:11:54;95930.34;;;25.65;39.45
13581;BME280;6861;46.170;7.222;2023-05-23T06:14:22;95925.06;;;26.02;39.12
13581;BME280;6861;46.170;7.222;2023-05-23T06:16:50;95927.38;;;26.34;38.67
13581;BME280;6861;46.170;7.222;2023-05-23T06:19:19;95925.59;;;26.86;38.12
13581;BME280;6861;46.170;7.222;2023-05-23T06:21:49;95933.63;;;27.30;36.59
13581;BME280;6861;46.170;7.222;2023-05-23T06:24:17;95928.19;;;27.81;36.34
13581;BME280;6861;46.170;7.222;2023-05-23T06:26:45;95924.88;;;28.20;35.18
13581;BME280;6861;46.170;7.222;2023-05-23T06:29:13;95928.44;;;28.38;34.59
13581;BME280;6861;46.170;7.222;2023-05-23T06:31:41;95922.66;;;28.32;33.85
13581;BME280;6861;46.170;7.222;2023-05-23T06:34:09;95920.25;;;28.17;33.93
13581;BME280;6861;46.170;7.222;2023-05-23T06:36:37;95923.72;;;28.14;34.27
13581;BME280;6861;46.170;7.222;2023-05-23T06:39:07;95921.09;;;28.28;34.01
13581;BME280;6861;46.170;7.222;2023-05-23T06:41:35;95918.06;;;28.40;33.65
13581;BME280;6861;46.170;7.222;2023-05-23T06:44:03;95919.25;;;28.71;33.81
13581;BME280;6861;46.170;7.222;2023-05-23T06:46:31;95932.41;;;29.15;33.09
13581;BME280;6861;46.170;7.222;2023-05-23T06:49:00;95915.06;;;29.45;32.29
13581;BME280;6861;46.170;7.222;2023-05-23T06:51:40;95916.56;;;29.60;32.19
13581;BME280;6861;46.170;7.222;2023-05-23T06:54:09;95911.81;;;30.07;31.75
13581;BME280;6861;46.170;7.222;2023-05-23T06:56:37;95909.97;;;30.66;31.14
13581;BME280;6861;46.170;7.222;2023-05-23T06:59:06;95911.41;;;31.29;30.43
13581;BME280;6861;46.170;7.222;2023-05-23T07:01:34;95912.75;;;31.89;29.67
13581;BME280;6861;46.170;7.222;2023-05-23T07:04:02;95903.09;;;32.19;28.69
13581;BME280;6861;46.170;7.222;2023-05-23T07:06:30;95911.78;;;32.37;28.41
13581;BME280;6861;46.170;7.222;2023-05-23T07:08:58;95907.53;;;32.36;27.46
13581;BME280;6861;46.170;7.222;2023-05-23T07:11:28;95907.53;;;32.36;27.76
13581;BME280;6861;46.170;7.222;2023-05-23T07:13:57;95907.06;;;32.41;27.24
13581;BME280;6861;46.170;7.222;2023-05-23T07:16:25;95903.34;;;32.58;27.00
13581;BME280;6861;46.170;7.222;2023-05-23T07:18:53;95895.63;;;33.07;26.79
13581;BME280;6861;46.170;7.222;2023-05-23T07:21:22;95894.19;;;33.69;26.45
13581;BME280;6861;46.170;7.222;2023-05-23T07:23:50;95887.91;;;34.12;25.57
13581;BME280;6861;46.170;7.222;2023-05-23T07:26:18;95884.97;;;34.59;25.13
13581;BME280;6861;46.170;7.222;2023-05-23T07:28:47;95889.25;;;35.08;24.17
13581;BME280;6861;46.170;7.222;2023-05-23T07:31:16;95886.84;;;35.43;23.96
13581;BME280;6861;46.170;7.222;2023-05-23T07:33:44;95885.97;;;35.75;23.65
13581;BME280;6861;46.170;7.222;2023-05-23T07:36:12;95886.94;;;36.10;23.47
13581;BME280;6861;46.170;7.222;2023-05-23T07:38:40;95881.78;;;36.28;23.21
13581;BME280;6861;46.170;7.222;2023-05-23T07:41:08;95887.09;;;36.70;22.88
13581;BME280;6861;46.170;7.222;2023-05-23T07:43:38;95878.25;;;37.04;22.30
13581;BME280;6861;46.170;7.222;2023-05-23T07:46:08;95877.88;;;37.49;21.79
13581;BME280;6861;46.170;7.222;2023-05-23T07:48:36;95878.06;;;37.67;21.28
13581;BME280;6861;46.170;7.222;2023-05-23T07:51:04;95866.69;;;37.91;21.26
13581;BME280;6861;46.170;7.222;2023-05-23T07:53:33;95867.25;;;38.38;20.95
13581;BME280;6861;46.170;7.222;2023-05-23T07:56:06;95864.09;;;38.98;20.53
13581;BME280;6861;46.170;7.222;2023-05-23T07:58:34;95867.31;;;39.15;20.18
13581;BME280;6861;46.170;7.222;2023-05-23T08:01:02;95862.91;;;39.09;20.07
13581;BME280;6861;46.170;7.222;2023-05-23T08:03:32;95856.81;;;39.05;19.58
13581;BME280;6861;46.170;7.222;2023-05-23T08:06:00;95853.44;;;38.91;19.48
13581;BME280;6861;46.170;7.222;2023-05-23T08:08:28;95858.22;;;38.60;19.73
13581;BME280;6861;46.170;7.222;2023-05-23T08:10:57;95850.13;;;38.56;19.73
13581;BME280;6861;46.170;7.222;2023-05-23T08:13:25;95848.94;;;38.57;19.25
13581;BME280;6861;46.170;7.222;2023-05-23T08:15:54;95848.72;;;38.12;19.74
13581;BME280;6861;46.170;7.222;2023-05-23T08:18:22;95849.59;;;37.78;19.82
13581;BME280;6861;46.170;7.222;2023-05-23T08:20:52;95843.81;;;37.76;20.23
13581;BME280;6861;46.170;7.222;2023-05-23T08:23:20;95840.25;;;37.88;20.52
13581;BME280;6861;46.170;7.222;2023-05-23T08:25:49;95845.38;;;38.79;20.36
13581;BME280;6861;46.170;7.222;2023-05-23T08:28:17;95844.97;;;39.81;19.35
13581;BME280;6861;46.170;7.222;2023-05-23T08:30:45;95838.16;;;40.18;19.05
13581;BME280;6861;46.170;7.222;2023-05-23T08:33:14;95833.75;;;40.87;18.44
13581;BME280;6861;46.170;7.222;2023-05-23T08:35:42;95837.16;;;41.44;17.79
13581;BME280;6861;46.170;7.222;2023-05-23T08:38:11;95832.31;;;41.15;17.81
13581;BME280;6861;46.170;7.222;2023-05-23T08:40:40;95833.97;;;41.61;18.21
13581;BME280;6861;46.170;7.222;2023-05-23T08:43:12;95833.88;;;42.64;17.65
13581;BME280;6861;46.170;7.222;2023-05-23T08:45:40;95833.31;;;43.15;16.73
13581;BME280;6861;46.170;7.222;2023-05-23T08:48:12;95820.81;;;42.59;16.21
13581;BME280;6861;46.170;7.222;2023-05-23T08:50:42;95831.88;;;41.85;16.76
13581;BME280;6861;46.170;7.222;2023-05-23T08:53:15;95821.28;;;41.93;17.46
13581;BME280;6861;46.170;7.222;2023-05-23T08:55:46;95819.63;;;43.00;16.78
13581;BME280;6861;46.170;7.222;2023-05-23T08:58:17;95811.53;;;43.89;16.23
13581;BME280;6861;46.170;7.222;2023-05-23T09:00:46;95808.25;;;44.91;15.55
13581;BME280;6861;46.170;7.222;2023-05-23T09:03:16;95810.00;;;46.03;14.71
13581;BME280;6861;46.170;7.222;2023-05-23T09:05:44;95801.88;;;46.61;13.83
13581;BME280;6861;46.170;7.222;2023-05-23T09:08:15;95805.03;;;46.93;13.80
13581;BME280;6861;46.170;7.222;2023-05-23T09:10:44;95808.78;;;47.07;13.68
13581;BME280;6861;46.170;7.222;2023-05-23T09:13:13;95797.00;;;47.48;13.74
13581;BME280;6861;46.170;7.222;2023-05-23T09:15:55;95793.41;;;48.24;12.71
13581;BME280;6861;46.170;7.222;2023-05-23T09:18:24;95787.66;;;48.16;12.52
13581;BME280;6861;46.170;7.222;2023-05-23T09:20:52;95792.63;;;48.53;12.57
13581;BME280;6861;46.170;7.222;2023-05-23T09:23:22;95791.81;;;49.20;12.24
13581;BME280;6861;46.170;7.222;2023-05-23T09:25:50;95781.94;;;49.89;11.83
13581;BME280;6861;46.170;7.222;2023-05-23T09:28:18;95775.94;;;50.30;11.73
13581;BME280;6861;46.170;7.222;2023-05-23T09:30:46;95768.66;;;50.40;11.33
13581;BME280;6861;46.170;7.222;2023-05-23T09:33:14;95764.78;;;50.57;11.67
13581;BME280;6861;46.170;7.222;2023-05-23T09:35:43;95772.84;;;50.87;11.56
13581;BME280;6861;46.170;7.222;2023-05-23T09:38:12;95767.56;;;51.09;11.55
13581;BME280;6861;46.170;7.222;2023-05-23T09:40:44;95766.94;;;51.03;11.50
13581;BME280;6861;46.170;7.222;2023-05-23T09:43:16;95761.16;;;50.88;11.60
13581;BME280;6861;46.170;7.222;2023-05-23T09:45:44;95757.53;;;50.67;11.65
13581;BME280;6861;46.170;7.222;2023-05-23T09:48:12;95755.06;;;50.50;11.77
13581;BME280;6861;46.170;7.222;2023-05-23T09:50:40;95753.97;;;50.53;11.63
13581;BME280;6861;46.170;7.222;2023-05-23T09:53:12;95744.22;;;50.46;11.88
13581;BME280;6861;46.170;7.222;2023-05-23T09:55:42;95744.22;;;50.46;11.85
13581;BME280;6861;46.170;7.222;2023-05-23T09:58:10;95732.22;;;50.12;11.98
13581;BME280;6861;46.170;7.222;2023-05-23T10:00:40;95730.44;;;49.50;12.22
13581;BME280;6861;46.170;7.222;2023-05-23T10:03:11;95723.72;;;48.52;12.88
13581;BME280;6861;46.170;7.222;2023-05-23T10:05:43;95734.19;;;46.57;14.06
13581;BME280;6861;46.170;7.222;2023-05-23T10:08:14;95723.41;;;44.43;15.74
13581;BME280;6861;46.170;7.222;2023-05-23T10:14:15;95716.63;;;40.45;18.95
13581;BME280;6861;46.170;7.222;2023-05-23T10:16:52;95718.72;;;39.33;19.61
13581;BME280;6861;46.170;7.222;2023-05-23T10:19:26;95709.09;;;38.28;20.56
13581;BME280;6861;46.170;7.222;2023-05-23T10:22:00;95712.50;;;37.39;21.29
13581;BME280;6861;46.170;7.222;2023-05-23T10:24:30;95708.00;;;36.67;22.10
13581;BME280;6861;46.170;7.222;2023-05-23T10:26:59;95712.91;;;36.12;22.47
13581;BME280;6861;46.170;7.222;2023-05-23T10:29:28;95699.38;;;35.70;22.76
13581;BME280;6861;46.170;7.222;2023-05-23T10:31:59;95698.22;;;35.30;23.21
13581;BME280;6861;46.170;7.222;2023-05-23T10:34:33;95705.00;;;34.96;23.51
13581;BME280;6861;46.170;7.222;2023-05-23T10:37:05;95691.84;;;34.49;24.63
13581;BME280;6861;46.170;7.222;2023-05-23T10:39:41;95692.78;;;34.10;24.98
13581;BME280;6861;46.170;7.222;2023-05-23T10:42:18;95688.16;;;33.75;25.70
13581;BME280;6861;46.170;7.222;2023-05-23T10:44:50;95677.16;;;33.46;25.99
13581;BME280;6861;46.170;7.222;2023-05-23T10:47:25;95679.00;;;33.33;25.98
13581;BME280;6861;46.170;7.222;2023-05-23T10:49:55;95672.03;;;33.32;26.05
13581;BME280;6861;46.170;7.222;2023-05-23T10:52:23;95670.78;;;33.16;26.00
13581;BME280;6861;46.170;7.222;2023-05-23T10:54:54;95657.03;;;33.07;26.62
13581;BME280;6861;46.170;7.222;2023-05-23T10:57:25;95667.66;;;32.98;26.79
13581;BME280;6861;46.170;7.222;2023-05-23T10:59:54;95654.47;;;32.80;26.66
13581;BME280;6861;46.170;7.222;2023-05-23T11:02:25;95656.06;;;32.78;27.31
13581;BME280;6861;46.170;7.222;2023-05-23T11:05:19;95647.63;;;32.72;27.09
13581;BME280;6861;46.170;7.222;2023-05-23T11:08:06;95654.66;;;32.70;27.07
13581;BME280;6861;46.170;7.222;2023-05-23T11:10:54;95642.28;;;32.69;27.96
13581;BME280;6861;46.170;7.222;2023-05-23T11:13:24;95651.88;;;32.73;27.44
13581;BME280;6861;46.170;7.222;2023-05-23T11:15:52;95638.78;;;32.48;27.98
13581;BME280;6861;46.170;7.222;2023-05-23T11:18:26;95643.50;;;32.44;28.68
13581;BME280;6861;46.170;7.222;2023-05-23T11:20:54;95628.22;;;32.34;28.63
13581;BME280;6861;46.170;7.222;2023-05-23T11:23:38;95630.09;;;32.37;29.28
13581;BME280;6861;46.170;7.222;2023-05-23T11:26:28;95626.63;;;32.37;29.26
13581;BME280;6861;46.170;7.222;2023-05-23T11:28:58;95622.78;;;32.34;29.37
13581;BME280;6861;46.170;7.222;2023-05-23T11:31:26;95617.25;;;32.41;28.97
13581;BME280;6861;46.170;7.222;2023-05-23T11:33:54;95622.53;;;32.48;29.64
13581;BME280;6861;46.170;7.222;2023-05-23T11:36:23;95618.56;;;32.53;29.85
13581;BME280;6861;46.170;7.222;2023-05-23T11:38:51;95604.63;;;32.54;29.30
13581;BME280;6861;46.170;7.222;2023-05-23T11:41:19;95607.53;;;32.64;29.41
13581;BME280;6861;46.170;7.222;2023-05-23T11:43:49;95601.91;;;32.74;28.68
13581;BME280;6861;46.170;7.222;2023-05-23T11:46:19;95606.53;;;32.77;28.76
13581;BME280;6861;46.170;7.222;2023-05-23T11:48:47;95592.91;;;32.81;28.73
13581;BME280;6861;46.170;7.222;2023-05-23T11:51:18;95589.50;;;32.77;28.64
13581;BME280;6861;46.170;7.222;2023-05-23T11:53:46;95574.97;;;32.67;28.92
13581;BME280;6861;46.170;7.222;2023-05-23T11:56:15;95579.59;;;32.67;29.22
13581;BME280;6861;46.170;7.222;2023-05-23T11:58:43;95572.59;;;32.69;29.32
13581;BME280;6861;46.170;7.222;2023-05-23T12:01:11;95566.28;;;32.76;29.41
13581;BME280;6861;46.170;7.222;2023-05-23T12:03:49;95566.41;;;32.69;28.83
13581;BME280;6861;46.170;7.222;2023-05-23T12:06:18;95559.19;;;32.62;28.79
13581;BME280;6861;46.170;7.222;2023-05-23T12:08:47;95555.09;;;32.54;28.87
13581;BME280;6861;46.170;7.222;2023-05-23T12:11:15;95546.00;;;32.44;28.70
13581;BME280;6861;46.170;7.222;2023-05-23T12:13:44;95556.25;;;32.33;28.90
13581;BME280;6861;46.170;7.222;2023-05-23T12:16:13;95546.59;;;32.32;28.80
13581;BME280;6861;46.170;7.222;2023-05-23T12:18:41;95540.84;;;32.30;28.91
13581;BME280;6861;46.170;7.222;2023-05-23T12:21:12;95535.56;;;32.23;29.49
13581;BME280;6861;46.170;7.222;2023-05-23T12:23:40;95530.84;;;32.27;30.08
13581;BME280;6861;46.170;7.222;2023-05-23T12:26:09;95533.19;;;32.25;30.15
13581;BME280;6861;46.170;7.222;2023-05-23T12:28:38;95532.47;;;32.21;29.77
13581;BME280;6861;46.170;7.222;2023-05-23T12:31:09;95526.38;;;32.17;29.72
13581;BME280;6861;46.170;7.222;2023-05-23T12:33:38;95524.13;;;32.12;30.10
13581;BME280;6861;46.170;7.222;2023-05-23T12:36:06;95522.59;;;32.11;30.15
13581;BME280;6861;46.170;7.222;2023-05-23T12:38:37;95526.50;;;32.10;30.16
13581;BME280;6861;46.170;7.222;2023-05-23T12:41:07;95526.59;;;32.06;30.40
13581;BME280;6861;46.170;7.222;2023-05-23T12:43:39;95519.72;;;32.02;30.55
13581;BME280;6861;46.170;7.222;2023-05-23T12:46:08;95512.06;;;31.97;30.58
13581;BME280;6861;46.170;7.222;2023-05-23T12:48:36;95516.78;;;31.92;31.16
13581;BME280;6861;46.170;7.222;2023-05-23T12:51:04;95503.59;;;31.94;30.64
13581;BME280;6861;46.170;7.222;2023-05-23T12:53:32;95499.66;;;31.99;30.53
13581;BME280;6861;46.170;7.222;2023-05-23T12:56:02;95499.59;;;32.03;30.51
13581;BME280;6861;46.170;7.222;2023-05-23T12:58:31;95505.34;;;32.05;30.11
13581;BME280;6861;46.170;7.222;2023-05-23T13:01:00;95492.47;;;32.09;30.31
13581;BME280;6861;46.170;7.222;2023-05-23T13:03:29;95489.53;;;32.23;29.78
13581;BME280;6861;46.170;7.222;2023-05-23T13:05:58;95492.03;;;32.34;30.12
13581;BME280;6861;46.170;7.222;2023-05-23T13:08:26;95484.19;;;32.39;29.60
13581;BME280;6861;46.170;7.222;2023-05-23T13:10:55;95491.41;;;32.46;29.53
13581;BME280;6861;46.170;7.222;2023-05-23T13:13:25;95482.38;;;32.52;29.64
13581;BME280;6861;46.170;7.222;2023-05-23T13:15:53;95480.84;;;32.51;30.15
13581;BME280;6861;46.170;7.222;2023-05-23T13:18:21;95475.41;;;32.51;29.10
13581;BME280;6861;46.170;7.222;2023-05-23T13:20:49;95471.38;;;32.59;29.65
13581;BME280;6861;46.170;7.222;2023-05-23T13:23:18;95466.50;;;32.71;29.11
13581;BME280;6861;46.170;7.222;2023-05-23T13:25:46;95468.66;;;32.79;28.63